Airfield :
LOGIN :

Register | Disclaimer

   EN    FR    IT 

 










Legend :    VFR   Marginal VFR   IFR   Intensive IFR   Very Intensive IFR
Visi :
Ceiling :
>= 8 km
>= 3000ft
5 to 8 km
1000 to 3000 ft
1500m to 5 km
500 to 1000 ft
800 to 1500m
200 to 500 ft
< 800m
< 200 ft
Symbols :   Thunderstorms  Fog  Heavy snow  Heavy precipitations  Wind > 20 kt
SIGMETs :     Misc.  Thunderstorms  Icing  Turbulence  Mountain Waves  Volcanic Ashes






- Airport Elevation : 171 ft
- IATA code : EGC


LFBE - Bergerac

CURRENT METAR :
  • 201930Z AUTO 27007KT 9999 OVC009 13/11 Q1010 TEMPO BKN010 BKN025TCU

EXPIRED METARs :
  • 201900Z AUTO 28009KT 9999 BKN010 BKN018 OVC024 13/11 Q1010 TEMPO BKN010 BKN025TCU
  • 201830Z AUTO 28009KT 9999 OVC009 13/11 Q1009 TEMPO BKN010 BKN025TCU
  • 201800Z AUTO 27008KT 9999 BKN012 OVC023 13/12 Q1009 TEMPO BKN010 BKN025TCU
  • 201730Z AUTO 27010KT 9999 BKN012 BKN017 OVC023 13/12 Q1008 TEMPO BKN010 BKN025TCU
  • 201700Z AUTO 28010KT 9999 BKN015 BKN032 BKN039 14/11 Q1007 TEMPO BKN010 BKN025TCU

TAF TAF LFBE
Valid from the 20 at 12:00 until the 21 at 12:00 UTC


201100Z 2012/2112 24010KT 9999 OVC020
TEMPO 2012/2022 -SHRA BKN010 BKN025TCU
BECMG 2100/2102 16005KT
TEMPO 2103/2106 3000 BR BKN005



MET'MAP, your aeronautical weather chart ! - Copyright ORBIFLY December 2007 - Disclaimer

ORBIFLY MET'MAP TEAM :

Programming & Development : Alexandra Zaïnal
Concept & Development : Baudouin d'Aumeries
Co-Development & Prog : Marc-Olivier Méhu
Technical & hardware support : Manuel Goepfert

Contact : metmap@orbifly.com




SOURCES & CREDITS :

   NOAA